Nordic Orion — 3FDS9 — position and weather

sailwx.info

Track history (hours):
 
Tides and Currents Weather Stations Pressure Air Temp Water Temp Dewpoint Dewpoint Depression Visibility Wind Speed Wind Dir Waves Ship Positions

Nordic Orion

Last reported at 2018-Feb-23 23:45 UTC. Time now 2018-Feb-25 23:40 UTC.
Position N 60°35' E 019°04'.

Length 225 m; draft 7.5 m.

Type: Ship. MMSI: 373437000.

Date/timePositionNaut miles runAvg speedWind from/ knotsBaromVisibWave heightAir tempDewpointWater temp
2018-Feb-23 23:45N 60°35' E 019°04'311.1
2018-Feb-23 23:30N 60°32' E 019°03'511.1
2018-Feb-23 23:00N 60°27' E 019°01'611.2
2018-Feb-23 22:30N 60°21' E 019°01'510.7
2018-Feb-23 22:00N 60°16' E 019°00'611.4
2018-Feb-23 21:31N 60°11' E 019°07'611.6
2018-Feb-23 21:01N 60°07' E 019°14'611.7
2018-Feb-23 20:30N 60°02' E 019°22'611.6
2018-Feb-23 20:01N 59°58' E 019°29'611.4
2018-Feb-23 19:31N 59°53' E 019°36'611.4
2018-Feb-23 19:01N 59°49' E 019°43'611.4
2018-Feb-23 18:31N 59°44' E 019°51'611.4
2018-Feb-23 18:01N 59°40' E 019°58'21210.8
2018-Feb-22 22:22N 56°29' E 017°06'411.9
2018-Feb-22 22:01N 56°25' E 017°03'611.7
2018-Feb-22 21:31N 56°20' E 016°60'611.9
2018-Feb-22 21:00N 56°14' E 016°57'611.7
2018-Feb-22 20:31N 56°08' E 016°53'611.6
2018-Feb-22 20:01N 56°04' E 016°46'611.4
2018-Feb-22 19:31N 56°01' E 016°38'611.4
2018-Feb-22 19:01N 55°58' E 016°29'611.3
2018-Feb-22 18:30N 55°55' E 016°20'511.2
2018-Feb-22 18:01N 55°52' E 016°11'611.3
2018-Feb-22 17:31N 55°50' E 016°03'611.3
2018-Feb-22 17:00N 55°47' E 015°54'611.2
2018-Feb-22 16:30N 55°44' E 015°45'611.2
2018-Feb-22 16:01N 55°41' E 015°36'611.4
2018-Feb-22 15:30N 55°39' E 015°28'611.3
2018-Feb-22 15:00N 55°36' E 015°19'611.1
2018-Feb-22 14:30N 55°33' E 015°10'611.2
2018-Feb-22 14:00N 55°30' E 015°02'611.0
2018-Feb-22 13:30N 55°28' E 014°53'610.9
2018-Feb-22 12:59N 55°25' E 014°44'510.9
2018-Feb-22 12:30N 55°22' E 014°37'511.0
2018-Feb-22 12:01N 55°18' E 014°31'611.1
2018-Feb-22 11:30N 55°13' E 014°25'510.3
2018-Feb-22 11:00N 55°10' E 014°18'610.9
2018-Feb-22 10:30N 55°10' E 014°08'2010.8
2018-Feb-22 08:39N 55°10' E 013°33'310.7
2018-Feb-22 08:22N 55°10' E 013°28'410.9
2018-Feb-22 07:59N 55°10' E 013°21'611.0
2018-Feb-22 07:28N 55°11' E 013°11'511.3
2018-Feb-22 07:01N 55°13' E 013°03'611.1
2018-Feb-22 06:30N 55°14' E 012°53'510.7
2018-Feb-22 06:00N 55°17' E 012°45'5 9.4
2018-Feb-22 05:30N 55°19' E 012°37'611.8
2018-Feb-22 05:01N 55°25' E 012°40'611.4
2018-Feb-22 04:30N 55°30' E 012°42'4 8.3
2018-Feb-22 04:01N 55°34' E 012°42'4 7.1
2018-Feb-22 03:30N 55°38' E 012°42'4 7.9
2018-Feb-22 03:00N 55°42' E 012°41'611.1
2018-Feb-22 02:31N 55°47' E 012°42'611.7
2018-Feb-22 02:01N 55°53' E 012°40'611.7
2018-Feb-22 01:31N 55°59' E 012°40'611.3
2018-Feb-22 01:01N 56°04' E 012°37'5 9.9
2018-Feb-22 00:31N 56°07' E 012°30'4 8.0
2018-Feb-22 00:01N 56°10' E 012°24'4 8.5
2018-Feb-21 23:31N 56°12' E 012°18'611.2
2018-Feb-21 23:00N 56°15' E 012°09'611.2
2018-Feb-21 22:30N 56°19' E 012°02'2711.5
2018-Feb-21 20:08N 56°45' E 011°52'511.7
2018-Feb-21 19:44N 56°50' E 011°49'511.6
2018-Feb-21 19:20N 56°54' E 011°46'411.6
2018-Feb-21 19:00N 56°58' E 011°44'611.2
2018-Feb-21 18:31N 57°03' E 011°40'611.2
2018-Feb-21 18:00N 57°08' E 011°36'511.1
2018-Feb-21 17:30N 57°13' E 011°33'510.8
2018-Feb-21 17:01N 57°18' E 011°29'510.9
2018-Feb-21 16:31N 57°23' E 011°26'510.2
2018-Feb-21 16:01N 57°28' E 011°23'510.4
2018-Feb-21 15:31N 57°32' E 011°16'510.6
2018-Feb-21 15:01N 57°35' E 011°09'510.4
2018-Feb-21 14:31N 57°39' E 011°01'510.8
2018-Feb-21 14:01N 57°43' E 010°54'611.1
2018-Feb-21 13:30N 57°46' E 010°46'510.1
2018-Feb-21 13:00N 57°48' E 010°37'611.1
2018-Feb-21 12:30N 57°48' E 010°27'611.5
2018-Feb-21 12:01N 57°48' E 010°16'14811.0
2018-Feb-20 22:34N 55°53' E 007°26'111.6
2018-Feb-20 22:30N 55°52' E 007°25'611.8
2018-Feb-20 22:00N 55°47' E 007°22'612.0
2018-Feb-20 21:30N 55°41' E 007°19'612.0
2018-Feb-20 21:00N 55°35' E 007°16'611.7
2018-Feb-20 20:31N 55°30' E 007°13'611.7
2018-Feb-20 20:00N 55°24' E 007°09'611.7
2018-Feb-20 19:30N 55°19' E 007°06'611.6
2018-Feb-20 19:00N 55°13' E 007°03'511.1
2018-Feb-20 18:30N 55°08' E 007°03'612.3
2018-Feb-20 18:00N 55°02' E 007°06'612.2
2018-Feb-20 17:30N 54°56' E 007°09'612.4
2018-Feb-20 17:00N 54°50' E 007°12'612.4
2018-Feb-20 16:30N 54°44' E 007°15'612.4
2018-Feb-20 16:00N 54°38' E 007°18'612.2
2018-Feb-20 15:29N 54°32' E 007°20'2111.5
2018-Feb-20 13:39N 54°12' E 007°32'411.2
2018-Feb-20 13:19N 54°10' E 007°38'411.1
2018-Feb-20 12:55N 54°08' E 007°44'510.8
2018-Feb-20 12:30N 54°06' E 007°51'610.8
2018-Feb-20 11:59N 54°03' E 007°59'510.3
2018-Feb-20 11:30N 54°01' E 008°07'5 9.8
2018-Feb-20 11:00N 54°00' E 008°15'611.6
2018-Feb-20 10:30N 53°59' E 008°25'713.0
2018-Feb-20 10:00N 53°58' E 008°36'815.1
2018-Feb-20 09:30N 53°52' E 008°44'714.1
2018-Feb-20 09:00N 53°51' E 008°56'815.1
2018-Feb-20 08:30N 53°53' E 009°08'713.3
2018-Feb-20 08:01N 53°51' E 009°19'815.0
2018-Feb-20 07:30N 53°45' E 009°25'713.7
2018-Feb-20 07:01N 53°39' E 009°31'612.8
2018-Feb-20 06:30N 53°34' E 009°39'612.0
2018-Feb-20 06:00N 53°33' E 009°49'4 7.8
2018-Feb-20 05:30N 53°33' E 009°55'2 3.1
2018-Feb-20 04:58N 53°31' E 009°56'0 0.0
2018-Feb-20 04:28N 53°31' E 009°56'0 0.0
2018-Feb-20 03:58N 53°31' E 009°56'0 0.0
2018-Feb-20 03:28N 53°31' E 009°56'0 0.0
2018-Feb-20 02:58N 53°31' E 009°56'0 0.0
2018-Feb-20 02:28N 53°31' E 009°56'0 0.0
2018-Feb-20 01:58N 53°31' E 009°56'0 0.0
2018-Feb-20 01:28N 53°31' E 009°56'0 0.0
2018-Feb-20 00:58N 53°31' E 009°56'0 0.0
2018-Feb-20 00:28N 53°31' E 009°56'0 0.0
2018-Feb-19 23:58N 53°31' E 009°56'0 0.0
2018-Feb-19 23:28N 53°31' E 009°56'0 0.0
2018-Feb-19 22:58N 53°31' E 009°56'0 0.0
2018-Feb-19 22:25N 53°31' E 009°56'0 0.0
2018-Feb-19 21:58N 53°31' E 009°56'0 0.0
2018-Feb-19 21:28N 53°31' E 009°56'0 0.0
2018-Feb-19 20:58N 53°31' E 009°56'0 0.0
2018-Feb-19 20:28N 53°31' E 009°56'0 0.0
2018-Feb-19 19:58N 53°31' E 009°56'0 0.0
2018-Feb-19 19:28N 53°31' E 009°56'0 0.0
2018-Feb-19 18:58N 53°31' E 009°56'0 0.0
2018-Feb-19 18:28N 53°31' E 009°56'0 0.0
2018-Feb-19 17:58N 53°31' E 009°56'0 0.0
2018-Feb-19 17:28N 53°31' E 009°56'0 0.0
2018-Feb-19 16:58N 53°31' E 009°56'0 0.0
2018-Feb-19 16:28N 53°31' E 009°56'0 0.0
2018-Feb-19 15:58N 53°31' E 009°56'0 0.0
2018-Feb-19 15:28N 53°31' E 009°56'0 0.0
2018-Feb-19 14:58N 53°31' E 009°56'0 0.0
2018-Feb-19 14:28N 53°31' E 009°56'0 0.0
2018-Feb-19 13:58N 53°31' E 009°56'0 0.0
2018-Feb-19 13:28N 53°31' E 009°56'0 0.0
2018-Feb-19 12:58N 53°31' E 009°56'0 0.0
2018-Feb-19 12:29N 53°31' E 009°56'0 0.0
2018-Feb-19 11:58N 53°31' E 009°56'0 0.0
2018-Feb-19 11:28N 53°31' E 009°56'0 0.0
2018-Feb-19 10:58N 53°31' E 009°56'0 0.0
2018-Feb-19 10:28N 53°31' E 009°56'0 0.0
2018-Feb-19 09:58N 53°31' E 009°56'0 0.0
2018-Feb-19 09:28N 53°31' E 009°56'0 0.0
2018-Feb-19 08:58N 53°31' E 009°56'0 0.0
2018-Feb-19 08:28N 53°31' E 009°56'0 0.0
2018-Feb-19 07:58N 53°31' E 009°56'0 0.0
2018-Feb-19 07:28N 53°31' E 009°56'0 0.0
2018-Feb-19 06:58N 53°31' E 009°56'0 0.0
2018-Feb-19 06:28N 53°31' E 009°56'0 0.0
2018-Feb-19 05:58N 53°31' E 009°56'0 0.0
2018-Feb-19 05:28N 53°31' E 009°56'0 0.0
2018-Feb-19 04:58N 53°31' E 009°56'0 0.0
2018-Feb-19 04:28N 53°31' E 009°56'0 0.0
2018-Feb-19 03:58N 53°31' E 009°56'0 0.0
2018-Feb-19 03:28N 53°31' E 009°56'0 0.0
2018-Feb-19 02:58N 53°31' E 009°56'0 0.0
2018-Feb-19 02:28N 53°31' E 009°56'0 0.0
2018-Feb-19 01:58N 53°31' E 009°56'0 0.0
2018-Feb-19 01:28N 53°31' E 009°56'0 0.0
2018-Feb-19 00:58N 53°31' E 009°56'0 0.0
2018-Feb-19 00:28N 53°31' E 009°56'0 0.0
2018-Feb-18 23:58N 53°31' E 009°56'0 0.0
2018-Feb-18 23:28N 53°31' E 009°56'0 0.0
2018-Feb-18 22:58N 53°31' E 009°56'0 0.0
2018-Feb-18 22:28N 53°31' E 009°56'0 0.0
2018-Feb-18 21:58N 53°31' E 009°56'0 0.0
2018-Feb-18 21:28N 53°31' E 009°56'0 0.0
2018-Feb-18 20:58N 53°31' E 009°56'0 0.0
2018-Feb-18 20:28N 53°31' E 009°56'0 0.0
2018-Feb-18 19:58N 53°31' E 009°56'0 0.0
2018-Feb-18 19:28N 53°31' E 009°56'0 0.1
2018-Feb-18 18:58N 53°31' E 009°56'0 0.0
2018-Feb-18 18:28N 53°31' E 009°56'0 0.0
2018-Feb-18 17:58N 53°31' E 009°56'0 0.0
2018-Feb-18 17:28N 53°31' E 009°56'0 0.0
2018-Feb-18 16:58N 53°31' E 009°56'0 0.0
2018-Feb-18 16:28N 53°31' E 009°56'0 0.0
2018-Feb-18 15:58N 53°31' E 009°56'0 0.0
2018-Feb-18 15:28N 53°31' E 009°56'0 0.0
2018-Feb-18 14:58N 53°31' E 009°56'0 0.0
2018-Feb-18 14:28N 53°31' E 009°56'0 0.0
2018-Feb-18 13:58N 53°31' E 009°56'0 0.0
2018-Feb-18 13:28N 53°31' E 009°56'0 0.0
2018-Feb-18 12:58N 53°31' E 009°56'0 0.0
2018-Feb-18 12:28N 53°31' E 009°56'0 0.0
2018-Feb-18 11:58N 53°31' E 009°56'0 0.0
2018-Feb-18 11:28N 53°31' E 009°56'0 0.0
2018-Feb-18 10:58N 53°31' E 009°56'0 0.0
2018-Feb-18 10:28N 53°31' E 009°56'0 0.0
2018-Feb-18 09:58N 53°31' E 009°56'0 0.0
2018-Feb-18 09:28N 53°31' E 009°56'0 0.0
2018-Feb-18 08:58N 53°31' E 009°56'0 0.0
2018-Feb-18 08:28N 53°31' E 009°56'0 0.0
2018-Feb-18 07:58N 53°31' E 009°56'0 0.0
2018-Feb-18 07:28N 53°31' E 009°56'0 0.0
2018-Feb-18 06:58N 53°31' E 009°56'0 0.0
2018-Feb-18 06:28N 53°31' E 009°56'0 0.0
2018-Feb-18 05:58N 53°31' E 009°56'0 0.0
2018-Feb-18 05:28N 53°31' E 009°56'0 0.0
2018-Feb-18 04:58N 53°31' E 009°56'0 0.0
2018-Feb-18 04:28N 53°31' E 009°56'0 0.0
2018-Feb-18 04:01N 53°31' E 009°56'0 0.7
2018-Feb-18 03:30N 53°31' E 009°56'2 3.8
2018-Feb-18 03:01N 53°32' E 009°54'4 7.9
2018-Feb-18 02:30N 53°33' E 009°47'5 9.4
2018-Feb-18 02:00N 53°34' E 009°40'5 9.5
2018-Feb-18 01:31N 53°37' E 009°33'5 9.8
2018-Feb-18 01:00N 53°41' E 009°30'612.1
2018-Feb-18 00:30N 53°46' E 009°24'510.5
2018-Feb-18 00:00N 53°51' E 009°19'510.9
2018-Feb-17 23:31N 53°53' E 009°11'510.3
2018-Feb-17 23:01N 53°52' E 009°02'612.2
2018-Feb-17 22:31N 53°50' E 008°52'611.6
2018-Feb-17 22:00N 53°53' E 008°43'612.4
2018-Feb-17 21:30N 53°57' E 008°37'612.3
2018-Feb-17 21:00N 53°59' E 008°26'612.2
2018-Feb-17 20:30N 53°60' E 008°16'611.8
2018-Feb-17 20:00N 53°59' E 008°06'611.3
2018-Feb-17 19:29N 53°59' E 007°56'3 1.6
2018-Feb-17 17:23N 53°58' E 007°50'17 4.4
2018-Feb-17 13:35N 53°54' E 007°23'1 9.7
2018-Feb-17 13:27N 53°54' E 007°21'6 9.6
2018-Feb-17 12:47N 53°52' E 007°10'3 8.0
2018-Feb-17 12:24N 53°51' E 007°05'11 8.3
2018-Feb-17 11:07N 53°49' E 006°48'1 8.6
2018-Feb-17 11:00N 53°49' E 006°46'2810.1
2018-Feb-17 08:15N 53°41' E 006°01'311.5
2018-Feb-17 08:00N 53°40' E 005°57'711.6
2018-Feb-17 07:27N 53°38' E 005°46'1711.6
2018-Feb-17 06:01N 53°32' E 005°20'211.9
2018-Feb-17 05:54N 53°32' E 005°17'511.8
2018-Feb-17 05:29N 53°30' E 005°10'611.5
2018-Feb-17 04:59N 53°28' E 005°01'511.4
2018-Feb-17 04:30N 53°26' E 004°52'1210.5
2018-Feb-17 03:24N 53°18' E 004°39'410.5
2018-Feb-17 03:00N 53°14' E 004°35'510.5
2018-Feb-17 02:30N 53°10' E 004°30'510.2
2018-Feb-17 02:00N 53°05' E 004°26'510.1
2018-Feb-17 01:30N 53°01' E 004°23'510.0
2018-Feb-17 01:00N 52°56' E 004°19'5 9.8
2018-Feb-17 00:30N 52°52' E 004°16'5 9.8
2018-Feb-17 00:00N 52°48' E 004°11'5 9.7
2018-Feb-16 23:30N 52°45' E 004°05'5 9.7
2018-Feb-16 23:00N 52°41' E 003°60'5 9.6
2018-Feb-16 22:30N 52°37' E 003°55'5 9.5
2018-Feb-16 22:00N 52°34' E 003°50'5 9.5
2018-Feb-16 21:30N 52°31' E 003°44'6 9.4
2018-Feb-16 20:52N 52°27' E 003°37'3 9.5
2018-Feb-16 20:30N 52°24' E 003°33'5 9.8
2018-Feb-16 20:00N 52°21' E 003°27'1210.2
2018-Feb-16 18:50N 52°12' E 003°13'2811.4
2018-Feb-16 16:20N 51°51' E 002°42'512.1
2018-Feb-16 15:56N 51°48' E 002°37'912.4
2018-Feb-16 15:14N 51°41' E 002°28'312.5
2018-Feb-16 15:00N 51°39' E 002°25'612.8
2018-Feb-16 14:30N 51°34' E 002°18'612.9
2018-Feb-16 14:00N 51°29' E 002°11'612.8
2018-Feb-16 13:30N 51°24' E 002°05'612.5
2018-Feb-16 13:00N 51°20' E 001°58'612.9
2018-Feb-16 12:30N 51°15' E 001°51'612.9
2018-Feb-16 12:00N 51°10' E 001°45'612.7
2018-Feb-16 11:30N 51°05' E 001°38'612.5
2018-Feb-16 11:00N 51°00' E 001°32'611.5
2018-Feb-16 10:31N 50°55' E 001°27'610.8
2018-Feb-16 09:59N 50°50' E 001°24'610.5
2018-Feb-16 09:27N 50°45' E 001°22'510.1
2018-Feb-16 08:59N 50°40' E 001°19'710.6
2018-Feb-16 08:20N 50°36' E 001°11'610.4
2018-Feb-16 07:47N 50°32' E 001°04'3 9.6
2018-Feb-16 07:30N 50°30' E 001°01'510.2
2018-Feb-16 07:00N 50°28' E 000°54'1510.0
2018-Feb-16 05:34N 50°24' E 000°32'1 9.8
2018-Feb-16 05:26N 50°24' E 000°30'5 9.6
2018-Feb-16 04:54N 50°22' E 000°22'4 9.3
2018-Feb-16 04:30N 50°21' E 000°17'5 9.3
2018-Feb-16 04:00N 50°20' E 000°10'5 9.1
2018-Feb-16 03:30N 50°19' E 000°03'5 9.2
2018-Feb-16 03:00N 50°18' W 000°04'5 9.2
2018-Feb-16 02:30N 50°17' W 000°11'5 9.0
2018-Feb-16 02:00N 50°15' W 000°18'12 9.0
2018-Feb-16 00:41N 50°12' W 000°36'1910.4
2018-Feb-15 22:54N 50°07' W 001°04'912.3
2018-Feb-15 22:10N 50°05' W 001°17'213.0
2018-Feb-15 22:01N 50°04' W 001°20'713.3
2018-Feb-15 21:30N 50°02' W 001°30'713.9
2018-Feb-15 21:00N 50°01' W 001°41'714.2
2018-Feb-15 20:30N 49°59' W 001°51'714.5
2018-Feb-15 20:00N 49°57' W 002°02'1413.8
2018-Feb-15 18:58N 49°53' W 002°24'1612.6
2018-Feb-15 17:42N 49°49' W 002°48'312.1
2018-Feb-15 17:26N 49°48' W 002°53'911.8
2018-Feb-15 16:42N 49°44' W 003°05'411.6
2018-Feb-15 16:23N 49°43' W 003°10'12010.2
2018-Feb-15 04:35N 48°60' W 006°02'  
Track history (hours):
 
Tides and Currents Weather Stations Pressure Air Temp Water Temp Dewpoint Dewpoint Depression Visibility Wind Speed Wind Dir Waves Ship Positions

Nordic Orion

Last reported at 2018-Feb-23 23:45 UTC. Time now 2018-Feb-25 23:40 UTC.
Position N 60°35' E 019°04'.

Length 225 m; draft 7.5 m.

Type: Ship. MMSI: 373437000.

Date/timePositionNaut miles runAvg speedWind from/ knotsBaromVisibWave heightAir tempDewpointWater temp
2018-Feb-23 23:45N 60°35' E 019°04'311.1
2018-Feb-23 23:30N 60°32' E 019°03'511.1
2018-Feb-23 23:00N 60°27' E 019°01'611.2
2018-Feb-23 22:30N 60°21' E 019°01'510.7
2018-Feb-23 22:00N 60°16' E 019°00'611.4
2018-Feb-23 21:31N 60°11' E 019°07'611.6
2018-Feb-23 21:01N 60°07' E 019°14'611.7
2018-Feb-23 20:30N 60°02' E 019°22'611.6
2018-Feb-23 20:01N 59°58' E 019°29'611.4
2018-Feb-23 19:31N 59°53' E 019°36'611.4
2018-Feb-23 19:01N 59°49' E 019°43'611.4
2018-Feb-23 18:31N 59°44' E 019°51'611.4
2018-Feb-23 18:01N 59°40' E 019°58'21210.8
2018-Feb-22 22:22N 56°29' E 017°06'411.9
2018-Feb-22 22:01N 56°25' E 017°03'611.7
2018-Feb-22 21:31N 56°20' E 016°60'611.9
2018-Feb-22 21:00N 56°14' E 016°57'611.7
2018-Feb-22 20:31N 56°08' E 016°53'611.6
2018-Feb-22 20:01N 56°04' E 016°46'611.4
2018-Feb-22 19:31N 56°01' E 016°38'611.4
2018-Feb-22 19:01N 55°58' E 016°29'611.3
2018-Feb-22 18:30N 55°55' E 016°20'511.2
2018-Feb-22 18:01N 55°52' E 016°11'611.3
2018-Feb-22 17:31N 55°50' E 016°03'611.3
2018-Feb-22 17:00N 55°47' E 015°54'611.2
2018-Feb-22 16:30N 55°44' E 015°45'611.2
2018-Feb-22 16:01N 55°41' E 015°36'611.4
2018-Feb-22 15:30N 55°39' E 015°28'611.3
2018-Feb-22 15:00N 55°36' E 015°19'611.1
2018-Feb-22 14:30N 55°33' E 015°10'611.2
2018-Feb-22 14:00N 55°30' E 015°02'611.0
2018-Feb-22 13:30N 55°28' E 014°53'610.9
2018-Feb-22 12:59N 55°25' E 014°44'510.9
2018-Feb-22 12:30N 55°22' E 014°37'511.0
2018-Feb-22 12:01N 55°18' E 014°31'611.1
2018-Feb-22 11:30N 55°13' E 014°25'510.3
2018-Feb-22 11:00N 55°10' E 014°18'610.9
2018-Feb-22 10:30N 55°10' E 014°08'2010.8
2018-Feb-22 08:39N 55°10' E 013°33'310.7
2018-Feb-22 08:22N 55°10' E 013°28'410.9
2018-Feb-22 07:59N 55°10' E 013°21'611.0
2018-Feb-22 07:28N 55°11' E 013°11'511.3
2018-Feb-22 07:01N 55°13' E 013°03'611.1
2018-Feb-22 06:30N 55°14' E 012°53'510.7
2018-Feb-22 06:00N 55°17' E 012°45'5 9.4
2018-Feb-22 05:30N 55°19' E 012°37'611.8
2018-Feb-22 05:01N 55°25' E 012°40'611.4
2018-Feb-22 04:30N 55°30' E 012°42'4 8.3
2018-Feb-22 04:01N 55°34' E 012°42'4 7.1
2018-Feb-22 03:30N 55°38' E 012°42'4 7.9
2018-Feb-22 03:00N 55°42' E 012°41'611.1
2018-Feb-22 02:31N 55°47' E 012°42'611.7
2018-Feb-22 02:01N 55°53' E 012°40'611.7
2018-Feb-22 01:31N 55°59' E 012°40'611.3
2018-Feb-22 01:01N 56°04' E 012°37'5 9.9
2018-Feb-22 00:31N 56°07' E 012°30'4 8.0
2018-Feb-22 00:01N 56°10' E 012°24'4 8.5
2018-Feb-21 23:31N 56°12' E 012°18'611.2
2018-Feb-21 23:00N 56°15' E 012°09'611.2
2018-Feb-21 22:30N 56°19' E 012°02'2711.5
2018-Feb-21 20:08N 56°45' E 011°52'511.7
2018-Feb-21 19:44N 56°50' E 011°49'511.6
2018-Feb-21 19:20N 56°54' E 011°46'411.6
2018-Feb-21 19:00N 56°58' E 011°44'611.2
2018-Feb-21 18:31N 57°03' E 011°40'611.2
2018-Feb-21 18:00N 57°08' E 011°36'511.1
2018-Feb-21 17:30N 57°13' E 011°33'510.8
2018-Feb-21 17:01N 57°18' E 011°29'510.9
2018-Feb-21 16:31N 57°23' E 011°26'510.2
2018-Feb-21 16:01N 57°28' E 011°23'510.4
2018-Feb-21 15:31N 57°32' E 011°16'510.6
2018-Feb-21 15:01N 57°35' E 011°09'510.4
2018-Feb-21 14:31N 57°39' E 011°01'510.8
2018-Feb-21 14:01N 57°43' E 010°54'611.1
2018-Feb-21 13:30N 57°46' E 010°46'510.1
2018-Feb-21 13:00N 57°48' E 010°37'611.1
2018-Feb-21 12:30N 57°48' E 010°27'611.5
2018-Feb-21 12:01N 57°48' E 010°16'14811.0
2018-Feb-20 22:34N 55°53' E 007°26'111.6
2018-Feb-20 22:30N 55°52' E 007°25'611.8
2018-Feb-20 22:00N 55°47' E 007°22'612.0
2018-Feb-20 21:30N 55°41' E 007°19'612.0
2018-Feb-20 21:00N 55°35' E 007°16'611.7
2018-Feb-20 20:31N 55°30' E 007°13'611.7
2018-Feb-20 20:00N 55°24' E 007°09'611.7
2018-Feb-20 19:30N 55°19' E 007°06'611.6
2018-Feb-20 19:00N 55°13' E 007°03'511.1
2018-Feb-20 18:30N 55°08' E 007°03'612.3
2018-Feb-20 18:00N 55°02' E 007°06'612.2
2018-Feb-20 17:30N 54°56' E 007°09'612.4
2018-Feb-20 17:00N 54°50' E 007°12'612.4
2018-Feb-20 16:30N 54°44' E 007°15'612.4
2018-Feb-20 16:00N 54°38' E 007°18'612.2
2018-Feb-20 15:29N 54°32' E 007°20'2111.5
2018-Feb-20 13:39N 54°12' E 007°32'411.2
2018-Feb-20 13:19N 54°10' E 007°38'411.1
2018-Feb-20 12:55N 54°08' E 007°44'510.8
2018-Feb-20 12:30N 54°06' E 007°51'610.8
2018-Feb-20 11:59N 54°03' E 007°59'510.3
2018-Feb-20 11:30N 54°01' E 008°07'5 9.8
2018-Feb-20 11:00N 54°00' E 008°15'611.6
2018-Feb-20 10:30N 53°59' E 008°25'713.0
2018-Feb-20 10:00N 53°58' E 008°36'815.1
2018-Feb-20 09:30N 53°52' E 008°44'714.1
2018-Feb-20 09:00N 53°51' E 008°56'815.1
2018-Feb-20 08:30N 53°53' E 009°08'713.3
2018-Feb-20 08:01N 53°51' E 009°19'815.0
2018-Feb-20 07:30N 53°45' E 009°25'713.7
2018-Feb-20 07:01N 53°39' E 009°31'612.8
2018-Feb-20 06:30N 53°34' E 009°39'612.0
2018-Feb-20 06:00N 53°33' E 009°49'4 7.8
2018-Feb-20 05:30N 53°33' E 009°55'2 3.1
2018-Feb-20 04:58N 53°31' E 009°56'0 0.0
2018-Feb-20 04:28N 53°31' E 009°56'0 0.0
2018-Feb-20 03:58N 53°31' E 009°56'0 0.0
2018-Feb-20 03:28N 53°31' E 009°56'0 0.0
2018-Feb-20 02:58N 53°31' E 009°56'0 0.0
2018-Feb-20 02:28N 53°31' E 009°56'0 0.0
2018-Feb-20 01:58N 53°31' E 009°56'0 0.0
2018-Feb-20 01:28N 53°31' E 009°56'0 0.0
2018-Feb-20 00:58N 53°31' E 009°56'0 0.0
2018-Feb-20 00:28N 53°31' E 009°56'0 0.0
2018-Feb-19 23:58N 53°31' E 009°56'0 0.0
2018-Feb-19 23:28N 53°31' E 009°56'0 0.0
2018-Feb-19 22:58N 53°31' E 009°56'0 0.0
2018-Feb-19 22:25N 53°31' E 009°56'0 0.0
2018-Feb-19 21:58N 53°31' E 009°56'0 0.0
2018-Feb-19 21:28N 53°31' E 009°56'0 0.0
2018-Feb-19 20:58N 53°31' E 009°56'0 0.0
2018-Feb-19 20:28N 53°31' E 009°56'0 0.0
2018-Feb-19 19:58N 53°31' E 009°56'0 0.0
2018-Feb-19 19:28N 53°31' E 009°56'0 0.0
2018-Feb-19 18:58N 53°31' E 009°56'0 0.0
2018-Feb-19 18:28N 53°31' E 009°56'0 0.0
2018-Feb-19 17:58N 53°31' E 009°56'0 0.0
2018-Feb-19 17:28N 53°31' E 009°56'0 0.0
2018-Feb-19 16:58N 53°31' E 009°56'0 0.0
2018-Feb-19 16:28N 53°31' E 009°56'0 0.0
2018-Feb-19 15:58N 53°31' E 009°56'0 0.0
2018-Feb-19 15:28N 53°31' E 009°56'0 0.0
2018-Feb-19 14:58N 53°31' E 009°56'0 0.0
2018-Feb-19 14:28N 53°31' E 009°56'0 0.0
2018-Feb-19 13:58N 53°31' E 009°56'0 0.0
2018-Feb-19 13:28N 53°31' E 009°56'0 0.0
2018-Feb-19 12:58N 53°31' E 009°56'0 0.0
2018-Feb-19 12:29N 53°31' E 009°56'0 0.0
2018-Feb-19 11:58N 53°31' E 009°56'0 0.0
2018-Feb-19 11:28N 53°31' E 009°56'0 0.0
2018-Feb-19 10:58N 53°31' E 009°56'0 0.0
2018-Feb-19 10:28N 53°31' E 009°56'0 0.0
2018-Feb-19 09:58N 53°31' E 009°56'0 0.0
2018-Feb-19 09:28N 53°31' E 009°56'0 0.0
2018-Feb-19 08:58N 53°31' E 009°56'0 0.0
2018-Feb-19 08:28N 53°31' E 009°56'0 0.0
2018-Feb-19 07:58N 53°31' E 009°56'0 0.0
2018-Feb-19 07:28N 53°31' E 009°56'0 0.0
2018-Feb-19 06:58N 53°31' E 009°56'0 0.0
2018-Feb-19 06:28N 53°31' E 009°56'0 0.0
2018-Feb-19 05:58N 53°31' E 009°56'0 0.0
2018-Feb-19 05:28N 53°31' E 009°56'0 0.0
2018-Feb-19 04:58N 53°31' E 009°56'0 0.0
2018-Feb-19 04:28N 53°31' E 009°56'0 0.0
2018-Feb-19 03:58N 53°31' E 009°56'0 0.0
2018-Feb-19 03:28N 53°31' E 009°56'0 0.0
2018-Feb-19 02:58N 53°31' E 009°56'0 0.0
2018-Feb-19 02:28N 53°31' E 009°56'0 0.0
2018-Feb-19 01:58N 53°31' E 009°56'0 0.0
2018-Feb-19 01:28N 53°31' E 009°56'0 0.0
2018-Feb-19 00:58N 53°31' E 009°56'0 0.0
2018-Feb-19 00:28N 53°31' E 009°56'0 0.0
2018-Feb-18 23:58N 53°31' E 009°56'0 0.0
2018-Feb-18 23:28N 53°31' E 009°56'0 0.0
2018-Feb-18 22:58N 53°31' E 009°56'0 0.0
2018-Feb-18 22:28N 53°31' E 009°56'0 0.0
2018-Feb-18 21:58N 53°31' E 009°56'0 0.0
2018-Feb-18 21:28N 53°31' E 009°56'0 0.0
2018-Feb-18 20:58N 53°31' E 009°56'0 0.0
2018-Feb-18 20:28N 53°31' E 009°56'0 0.0
2018-Feb-18 19:58N 53°31' E 009°56'0 0.0
2018-Feb-18 19:28N 53°31' E 009°56'0 0.1
2018-Feb-18 18:58N 53°31' E 009°56'0 0.0
2018-Feb-18 18:28N 53°31' E 009°56'0 0.0
2018-Feb-18 17:58N 53°31' E 009°56'0 0.0
2018-Feb-18 17:28N 53°31' E 009°56'0 0.0
2018-Feb-18 16:58N 53°31' E 009°56'0 0.0
2018-Feb-18 16:28N 53°31' E 009°56'0 0.0
2018-Feb-18 15:58N 53°31' E 009°56'0 0.0
2018-Feb-18 15:28N 53°31' E 009°56'0 0.0
2018-Feb-18 14:58N 53°31' E 009°56'0 0.0
2018-Feb-18 14:28N 53°31' E 009°56'0 0.0
2018-Feb-18 13:58N 53°31' E 009°56'0 0.0
2018-Feb-18 13:28N 53°31' E 009°56'0 0.0
2018-Feb-18 12:58N 53°31' E 009°56'0 0.0
2018-Feb-18 12:28N 53°31' E 009°56'0 0.0
2018-Feb-18 11:58N 53°31' E 009°56'0 0.0
2018-Feb-18 11:28N 53°31' E 009°56'0 0.0
2018-Feb-18 10:58N 53°31' E 009°56'0 0.0
2018-Feb-18 10:28N 53°31' E 009°56'0 0.0
2018-Feb-18 09:58N 53°31' E 009°56'0 0.0
2018-Feb-18 09:28N 53°31' E 009°56'0 0.0
2018-Feb-18 08:58N 53°31' E 009°56'0 0.0
2018-Feb-18 08:28N 53°31' E 009°56'0 0.0
2018-Feb-18 07:58N 53°31' E 009°56'0 0.0
2018-Feb-18 07:28N 53°31' E 009°56'0 0.0
2018-Feb-18 06:58N 53°31' E 009°56'0 0.0
2018-Feb-18 06:28N 53°31' E 009°56'0 0.0
2018-Feb-18 05:58N 53°31' E 009°56'0 0.0
2018-Feb-18 05:28N 53°31' E 009°56'0 0.0
2018-Feb-18 04:58N 53°31' E 009°56'0 0.0
2018-Feb-18 04:28N 53°31' E 009°56'0 0.0
2018-Feb-18 04:01N 53°31' E 009°56'0 0.7
2018-Feb-18 03:30N 53°31' E 009°56'2 3.8
2018-Feb-18 03:01N 53°32' E 009°54'4 7.9
2018-Feb-18 02:30N 53°33' E 009°47'5 9.4
2018-Feb-18 02:00N 53°34' E 009°40'5 9.5
2018-Feb-18 01:31N 53°37' E 009°33'5 9.8
2018-Feb-18 01:00N 53°41' E 009°30'612.1
2018-Feb-18 00:30N 53°46' E 009°24'510.5
2018-Feb-18 00:00N 53°51' E 009°19'510.9
2018-Feb-17 23:31N 53°53' E 009°11'510.3
2018-Feb-17 23:01N 53°52' E 009°02'612.2
2018-Feb-17 22:31N 53°50' E 008°52'611.6
2018-Feb-17 22:00N 53°53' E 008°43'612.4
2018-Feb-17 21:30N 53°57' E 008°37'612.3
2018-Feb-17 21:00N 53°59' E 008°26'612.2
2018-Feb-17 20:30N 53°60' E 008°16'611.8
2018-Feb-17 20:00N 53°59' E 008°06'611.3
2018-Feb-17 19:29N 53°59' E 007°56'3 1.6
2018-Feb-17 17:23N 53°58' E 007°50'17 4.4
2018-Feb-17 13:35N 53°54' E 007°23'1 9.7
2018-Feb-17 13:27N 53°54' E 007°21'6 9.6
2018-Feb-17 12:47N 53°52' E 007°10'3 8.0
2018-Feb-17 12:24N 53°51' E 007°05'11 8.3
2018-Feb-17 11:07N 53°49' E 006°48'1 8.6
2018-Feb-17 11:00N 53°49' E 006°46'2810.1
2018-Feb-17 08:15N 53°41' E 006°01'311.5
2018-Feb-17 08:00N 53°40' E 005°57'711.6
2018-Feb-17 07:27N 53°38' E 005°46'1711.6
2018-Feb-17 06:01N 53°32' E 005°20'211.9
2018-Feb-17 05:54N 53°32' E 005°17'511.8
2018-Feb-17 05:29N 53°30' E 005°10'611.5
2018-Feb-17 04:59N 53°28' E 005°01'511.4
2018-Feb-17 04:30N 53°26' E 004°52'1210.5
2018-Feb-17 03:24N 53°18' E 004°39'410.5
2018-Feb-17 03:00N 53°14' E 004°35'510.5
2018-Feb-17 02:30N 53°10' E 004°30'510.2
2018-Feb-17 02:00N 53°05' E 004°26'510.1
2018-Feb-17 01:30N 53°01' E 004°23'510.0
2018-Feb-17 01:00N 52°56' E 004°19'5 9.8
2018-Feb-17 00:30N 52°52' E 004°16'5 9.8
2018-Feb-17 00:00N 52°48' E 004°11'5 9.7
2018-Feb-16 23:30N 52°45' E 004°05'5 9.7
2018-Feb-16 23:00N 52°41' E 003°60'5 9.6
2018-Feb-16 22:30N 52°37' E 003°55'5 9.5
2018-Feb-16 22:00N 52°34' E 003°50'5 9.5
2018-Feb-16 21:30N 52°31' E 003°44'6 9.4
2018-Feb-16 20:52N 52°27' E 003°37'3 9.5
2018-Feb-16 20:30N 52°24' E 003°33'5 9.8
2018-Feb-16 20:00N 52°21' E 003°27'1210.2
2018-Feb-16 18:50N 52°12' E 003°13'2811.4
2018-Feb-16 16:20N 51°51' E 002°42'512.1
2018-Feb-16 15:56N 51°48' E 002°37'912.4
2018-Feb-16 15:14N 51°41' E 002°28'312.5
2018-Feb-16 15:00N 51°39' E 002°25'612.8
2018-Feb-16 14:30N 51°34' E 002°18'612.9
2018-Feb-16 14:00N 51°29' E 002°11'612.8
2018-Feb-16 13:30N 51°24' E 002°05'612.5
2018-Feb-16 13:00N 51°20' E 001°58'612.9
2018-Feb-16 12:30N 51°15' E 001°51'612.9
2018-Feb-16 12:00N 51°10' E 001°45'612.7
2018-Feb-16 11:30N 51°05' E 001°38'612.5
2018-Feb-16 11:00N 51°00' E 001°32'611.5
2018-Feb-16 10:31N 50°55' E 001°27'610.8
2018-Feb-16 09:59N 50°50' E 001°24'610.5
2018-Feb-16 09:27N 50°45' E 001°22'510.1
2018-Feb-16 08:59N 50°40' E 001°19'710.6
2018-Feb-16 08:20N 50°36' E 001°11'610.4
2018-Feb-16 07:47N 50°32' E 001°04'3 9.6
2018-Feb-16 07:30N 50°30' E 001°01'510.2
2018-Feb-16 07:00N 50°28' E 000°54'1510.0
2018-Feb-16 05:34N 50°24' E 000°32'1 9.8
2018-Feb-16 05:26N 50°24' E 000°30'5 9.6
2018-Feb-16 04:54N 50°22' E 000°22'4 9.3
2018-Feb-16 04:30N 50°21' E 000°17'5 9.3
2018-Feb-16 04:00N 50°20' E 000°10'5 9.1
2018-Feb-16 03:30N 50°19' E 000°03'5 9.2
2018-Feb-16 03:00N 50°18' W 000°04'5 9.2
2018-Feb-16 02:30N 50°17' W 000°11'5 9.0
2018-Feb-16 02:00N 50°15' W 000°18'12 9.0
2018-Feb-16 00:41N 50°12' W 000°36'1910.4
2018-Feb-15 22:54N 50°07' W 001°04'912.3
2018-Feb-15 22:10N 50°05' W 001°17'213.0
2018-Feb-15 22:01N 50°04' W 001°20'713.3
2018-Feb-15 21:30N 50°02' W 001°30'713.9
2018-Feb-15 21:00N 50°01' W 001°41'714.2
2018-Feb-15 20:30N 49°59' W 001°51'714.5
2018-Feb-15 20:00N 49°57' W 002°02'1413.8
2018-Feb-15 18:58N 49°53' W 002°24'1612.6
2018-Feb-15 17:42N 49°49' W 002°48'312.1
2018-Feb-15 17:26N 49°48' W 002°53'911.8
2018-Feb-15 16:42N 49°44' W 003°05'411.6
2018-Feb-15 16:23N 49°43' W 003°10'12010.2
2018-Feb-15 04:35N 48°60' W 006°02'  

Dump ship's entire track history